Time;durP1;ratioP1;P1;durP2;ratioP2;P2;SDS_P1;SDS_P2;PMS_P1;PMS_P2;Temp;Humidity;BMP_temperature;BMP_pressure;BME280_temperature;BME280_humidity;BME280_pressure;Samples;Min_cycle;Max_cycle;Signal;HPM_P1;HPM_P2
2023/04/11 00:00:33;;;;;;;3.05;2.03;;;14.50;48.40;;;17.26;35.92;97211.88;5061826;28;20041;-60
2023/04/11 00:03:01;;;;;;;3.05;1.80;;;14.50;48.60;;;17.20;36.50;97193.91;5061729;28;20502;-60
2023/04/11 00:05:32;;;;;;;2.78;1.80;;;14.50;49.10;;;17.10;37.27;97166.66;5064530;28;20041;-60
2023/04/11 00:07:59;;;;;;;3.78;1.70;;;14.40;51.00;;;17.21;36.56;97165.13;5063032;28;20059;-60
2023/04/11 00:10:27;;;;;;;3.70;2.47;;;14.40;49.80;;;17.18;36.54;97170.97;5061576;28;20047;-60
2023/04/11 00:12:55;;;;;;;2.03;1.80;;;14.40;50.20;;;17.23;36.68;97165.75;5061136;28;20041;-60
2023/04/11 00:15:25;;;;;;;2.75;2.00;;;14.30;49.60;;;17.17;36.46;97164.75;5064492;28;20044;-60
2023/04/11 00:17:53;;;;;;;3.72;1.63;;;14.40;49.30;;;17.21;36.54;97171.34;5063787;28;20040;-59
2023/04/11 00:20:21;;;;;;;3.17;1.98;;;14.40;50.20;;;17.24;36.71;97164.72;5061504;28;20111;-59
2023/04/11 00:22:52;;;;;;;4.50;1.80;;;14.40;49.50;;;17.27;36.51;97169.66;5061255;28;20041;-59
2023/04/11 00:25:20;;;;;;;2.20;1.65;;;14.40;50.40;;;17.24;36.32;97151.28;5063861;28;20497;-59
2023/04/11 00:27:47;;;;;;;3.42;2.13;;;14.40;50.20;;;17.24;36.51;97153.97;5063135;28;20053;-60
2023/04/11 00:30:15;;;;;;;2.58;1.90;;;14.30;49.80;;;17.27;36.38;97130.16;5062155;28;20048;-59
2023/04/11 00:32:45;;;;;;;2.38;1.92;;;14.40;49.70;;;17.28;36.36;97131.78;5059390;28;20045;-60
2023/04/11 00:35:13;;;;;;;4.65;2.15;;;14.40;49.50;;;17.33;36.36;97147.25;5060523;28;20060;-59
2023/04/11 00:37:43;;;;;;;2.40;1.70;;;14.40;49.40;;;17.34;36.27;97153.50;5064383;28;20041;-59
2023/04/11 00:40:17;;;;;;;2.28;1.70;;;14.40;49.30;;;17.37;36.34;97148.50;5061378;28;20040;-59
2023/04/11 00:42:46;;;;;;;2.33;1.75;;;14.40;49.40;;;17.41;36.48;97147.03;5039814;28;20426;-60
2023/04/11 00:45:14;;;;;;;2.97;2.10;;;14.50;49.70;;;17.38;36.43;97150.13;5060536;28;20049;-59
2023/04/11 00:47:42;;;;;;;2.85;2.00;;;14.50;49.90;;;17.41;36.82;97151.56;5062636;28;20059;-59
2023/04/11 00:50:12;;;;;;;3.88;2.08;;;14.50;50.00;;;17.40;36.38;97150.75;5061786;28;20049;-59
2023/04/11 00:52:45;;;;;;;2.85;1.80;;;14.50;49.80;;;17.40;36.43;97148.06;5059264;28;20056;-59
2023/04/11 00:55:13;;;;;;;3.05;1.73;;;14.50;50.30;;;17.39;36.52;97150.97;5060739;28;20521;-59
2023/04/11 00:57:42;;;;;;;3.08;1.98;;;14.40;49.80;;;17.35;36.45;97155.97;5062370;28;20052;-60
2023/04/11 01:00:11;;;;;;;2.40;1.92;;;14.40;49.70;;;17.34;36.83;97158.88;5060965;28;20425;-60
2023/04/11 01:02:41;;;;;;;3.20;1.80;;;14.40;50.50;;;17.31;36.48;97158.25;5056370;28;20051;-60
2023/04/11 01:05:13;;;;;;;2.50;1.83;;;14.40;49.80;;;17.28;37.07;97156.00;5061240;28;20045;-59
2023/04/11 01:07:45;;;;;;;2.83;2.08;;;14.30;51.00;;;17.12;39.94;97162.72;5062396;28;20052;-59
2023/04/11 01:10:15;;;;;;;3.88;1.88;;;14.30;55.90;;;17.20;39.41;97155.44;5060406;28;20056;-59
2023/04/11 01:12:44;;;;;;;2.90;2.20;;;14.20;56.30;;;17.13;40.79;97160.84;5058778;28;20055;-59
2023/04/11 01:15:12;;;;;;;4.30;2.20;;;14.10;58.10;;;17.04;40.86;97175.56;5060068;28;20520;-59
2023/04/11 01:17:43;;;;;;;3.85;1.85;;;14.00;58.60;;;16.91;41.68;97181.84;5045503;28;20053;-59
2023/04/11 01:20:11;;;;;;;4.40;2.00;;;13.80;61.10;;;16.80;42.67;97179.78;5045125;28;20037;-59
2023/04/11 01:22:41;;;;;;;3.10;2.50;;;13.60;63.10;;;16.73;42.87;97182.50;5059133;28;20518;-59
2023/04/11 01:25:10;;;;;;;4.35;2.17;;;13.50;65.10;;;16.69;43.11;97176.72;5058958;28;20518;-59
2023/04/11 01:27:37;;;;;;;4.38;2.10;;;13.50;68.90;;;16.60;44.14;97196.78;5063543;28;20047;-59
2023/04/11 01:30:06;;;;;;;3.50;2.00;;;13.40;72.20;;;16.36;45.32;97198.25;5063027;28;20527;-59
2023/04/11 01:32:34;;;;;;;3.92;2.50;;;13.20;73.80;;;16.07;46.87;97186.94;5058402;28;20049;-60
2023/04/11 01:35:04;;;;;;;2.30;1.63;;;12.90;76.10;;;15.94;47.28;97181.56;5059285;28;20049;-59
2023/04/11 01:37:32;;;;;;;4.00;1.98;;;12.70;78.00;;;15.88;47.78;97183.22;5052122;28;20041;-59
2023/04/11 01:40:00;;;;;;;4.53;2.40;;;12.70;79.90;;;15.61;49.75;97193.06;5058842;28;20051;-59
2023/04/11 01:42:29;;;;;;;3.80;2.53;;;12.50;83.40;;;15.50;50.13;97197.16;5061589;28;20498;-59
2023/04/11 01:44:58;;;;;;;3.08;2.20;;;12.40;88.30;;;15.45;50.17;97204.16;5045438;28;20494;-59
2023/04/11 01:47:26;;;;;;;3.90;2.30;;;12.30;90.70;;;15.26;51.23;97222.69;5041996;28;20045;-59
2023/04/11 01:49:54;;;;;;;3.50;2.58;;;12.10;95.00;;;15.20;51.51;97239.59;5038472;28;20037;-60
2023/04/11 01:52:22;;;;;;;2.22;1.83;;;12.00;99.10;;;14.68;53.84;97238.31;5041525;28;20080;-59
2023/04/11 01:54:49;;;;;;;3.38;2.17;;;11.80;99.90;;;14.59;54.15;97234.94;5060787;28;20052;-60
2023/04/11 01:57:17;;;;;;;4.63;3.28;;;11.60;99.90;;;14.62;53.98;97234.56;5060014;28;20417;-59
2023/04/11 01:59:44;;;;;;;2.80;1.90;;;11.60;99.90;;;14.45;54.40;97230.50;5058190;28;20041;-60
2023/04/11 02:02:12;;;;;;;3.47;1.85;;;11.40;99.90;;;14.41;54.58;97238.09;5058970;28;20056;-60
2023/04/11 02:04:40;;;;;;;2.28;1.60;;;11.30;99.90;;;14.41;54.00;97239.97;5044468;28;20052;-60
2023/04/11 02:07:07;;;;;;;3.40;1.52;;;11.30;99.90;;;14.24;54.80;97239.41;5062219;28;20401;-60
2023/04/11 02:09:36;;;;;;;1.90;1.30;;;11.20;99.90;;;14.22;54.93;97238.78;5057361;28;20056;-60
2023/04/11 02:12:04;;;;;;;1.60;1.40;;;11.10;99.90;;;14.24;54.50;97244.78;5058334;28;20048;-60
2023/04/11 02:14:43;;;;;;;2.47;1.50;;;11.10;99.90;;;14.16;54.94;97253.78;5059187;28;20048;-60
2023/04/11 02:17:12;;;;;;;3.30;1.43;;;11.10;99.90;;;14.32;54.20;97260.69;5057205;28;20054;-60
2023/04/11 02:19:40;;;;;;;2.73;1.40;;;11.20;99.90;;;14.38;54.05;97276.81;5062978;28;20051;-60
2023/04/11 02:22:08;;;;;;;2.55;1.60;;;11.30;99.90;;;14.37;54.07;97277.81;5060849;28;20058;-60
2023/04/11 02:24:36;;;;;;;2.50;1.60;;;11.30;99.90;;;14.42;54.49;97277.22;5057493;28;20044;-60
2023/04/11 02:27:03;;;;;;;2.73;1.60;;;11.30;99.90;;;14.48;54.33;97271.13;5057724;28;20049;-60
2023/04/11 02:29:32;;;;;;;1.83;1.47;;;11.40;99.90;;;14.49;54.16;97253.19;5061300;28;20048;-60
2023/04/11 02:32:00;;;;;;;2.77;1.33;;;11.40;99.90;;;14.53;54.08;97247.25;5061500;28;20037;-60
2023/04/11 02:34:27;;;;;;;2.00;1.60;;;11.40;99.90;;;14.55;53.70;97241.69;5058056;28;20052;-60
2023/04/11 02:36:55;;;;;;;1.27;1.10;;;11.30;99.90;;;14.54;53.88;97246.22;5057642;28;20075;-60
2023/04/11 02:39:22;;;;;;;2.27;1.53;;;11.40;99.90;;;14.57;53.89;97245.03;5059027;28;20052;-60
2023/04/11 02:41:50;;;;;;;3.97;1.47;;;11.40;99.90;;;14.38;54.60;97244.69;5062786;28;20044;-60
2023/04/11 02:44:18;;;;;;;2.90;1.83;;;11.30;99.90;;;14.43;54.10;97246.78;5059140;28;20049;-60
2023/04/11 02:46:46;;;;;;;2.40;1.40;;;11.20;99.90;;;14.42;54.20;97241.59;5057504;28;20072;-60
2023/04/11 02:49:14;;;;;;;1.63;1.23;;;11.20;99.90;;;14.17;54.78;97237.53;5064324;28;20061;-60
2023/04/11 02:51:44;;;;;;;1.27;0.97;;;11.00;99.90;;;14.17;54.67;97236.66;5060977;28;20525;-60
2023/04/11 02:54:12;;;;;;;1.77;1.20;;;11.00;99.90;;;14.11;55.06;97240.13;5059944;28;20056;-60
2023/04/11 02:56:40;;;;;;;3.30;1.40;;;11.00;99.90;;;14.09;54.95;97243.00;5057677;28;20041;-61
2023/04/11 02:59:07;;;;;;;4.50;1.30;;;10.90;99.90;;;14.09;55.13;97247.53;5057711;28;20506;-61
2023/04/11 03:01:36;;;;;;;1.50;1.07;;;10.90;99.90;;;14.05;54.81;97235.56;5049768;28;20037;-60
2023/04/11 03:04:06;;;;;;;1.70;1.20;;;10.90;99.90;;;14.03;54.68;97238.41;5058704;28;20048;-61
2023/04/11 03:06:54;;;;;;;2.27;1.20;;;10.80;99.90;;;14.04;54.34;97233.91;5056451;28;20061;-61
2023/04/11 03:09:24;;;;;;;2.03;1.40;;;10.80;99.90;;;14.04;54.35;97245.44;5062891;28;20502;-61
2023/04/11 03:11:52;;;;;;;3.30;1.85;;;10.80;99.90;;;14.05;54.26;97257.78;5064928;28;20057;-61
2023/04/11 03:14:20;;;;;;;2.47;1.02;;;10.80;99.90;;;14.04;54.10;97264.19;5062706;28;20056;-61
2023/04/11 03:16:47;;;;;;;1.80;1.00;;;10.70;99.90;;;13.93;53.93;97267.34;5060780;28;20049;-61
2023/04/11 03:19:15;;;;;;;2.83;1.50;;;10.60;99.90;;;13.89;53.80;97264.22;5061478;28;20049;-61
2023/04/11 03:21:43;;;;;;;3.47;1.20;;;10.60;99.90;;;13.83;54.10;97269.53;5064338;28;20044;-61
2023/04/11 03:24:11;;;;;;;1.77;1.10;;;10.50;99.90;;;13.56;54.50;97263.91;5063483;28;20060;-61
2023/04/11 03:26:40;;;;;;;3.20;1.13;;;10.30;99.90;;;13.55;54.21;97257.72;5060881;28;20422;-61
2023/04/11 03:29:11;;;;;;;2.93;1.13;;;10.20;99.90;;;13.57;54.15;97247.69;5074704;28;20537;-61
2023/04/11 03:31:55;;;;;;;3.60;1.08;;;10.30;99.90;;;13.58;54.13;97257.34;5064059;28;20449;-61
2023/04/11 03:34:24;;;;;;;2.07;1.13;;;10.30;99.90;;;13.48;54.68;97248.81;5062024;28;20051;-61
2023/04/11 03:36:54;;;;;;;4.73;1.30;;;10.30;99.90;;;13.50;54.58;97240.59;5044851;28;20041;-61
2023/04/11 03:39:24;;;;;;;3.93;1.57;;;10.20;99.90;;;13.27;54.50;97249.56;5061475;28;20506;-61
2023/04/11 03:41:52;;;;;;;2.90;1.13;;;10.00;99.90;;;13.14;54.84;97252.06;5064060;28;20053;-61
2023/04/11 03:44:19;;;;;;;6.83;2.00;;;9.90;99.90;;;13.11;55.00;97250.63;5062488;28;20371;-61
2023/04/11 03:46:47;;;;;;;2.20;1.30;;;9.80;99.90;;;13.05;55.74;97255.88;5060242;28;20045;-61
2023/04/11 03:49:16;;;;;;;2.53;1.17;;;9.80;99.90;;;13.00;55.82;97261.78;5061075;28;20049;-61
2023/04/11 03:51:49;;;;;;;3.83;1.20;;;9.80;99.90;;;13.04;55.89;97260.38;5064173;28;20067;-61
2023/04/11 03:54:17;;;;;;;4.70;1.60;;;9.80;99.90;;;12.98;56.07;97267.28;5062344;28;20048;-61
2023/04/11 03:56:45;;;;;;;3.50;1.30;;;9.70;99.90;;;13.05;56.01;97266.56;5060432;28;20116;-61
2023/04/11 03:59:19;;;;;;;2.83;1.40;;;9.80;99.90;;;12.94;56.37;97274.03;5058592;28;20058;-61
2023/04/11 04:02:00;;;;;;;2.53;1.20;;;9.70;99.90;;;12.87;56.71;97262.44;5063675;28;20052;-61
2023/04/11 04:04:32;;;;;;;3.67;1.33;;;9.60;99.90;;;12.73;56.93;97272.09;5058370;28;20413;-61
2023/04/11 04:07:09;;;;;;;3.87;2.00;;;9.60;99.90;;;12.56;57.77;97281.28;5060253;28;20056;-61
2023/04/11 04:09:41;;;;;;;3.17;1.23;;;9.50;99.90;;;12.51;58.04;97268.50;5060178;28;20057;-61
2023/04/11 04:12:09;;;;;;;3.83;1.50;;;9.40;99.90;;;12.68;57.53;97276.31;5059957;28;20452;-61
2023/04/11 04:14:52;;;;;;;2.37;1.40;;;9.50;99.90;;;12.80;56.87;97280.22;5059163;28;20421;-62
2023/04/11 04:17:20;;;;;;;1.73;1.40;;;9.70;99.90;;;12.68;57.57;97285.19;5060370;28;20045;-61
2023/04/11 04:19:47;;;;;;;1.57;0.90;;;9.60;99.90;;;12.63;57.59;97292.09;5046773;28;20051;-61
2023/04/11 04:22:16;;;;;;;5.80;1.20;;;9.60;99.90;;;12.54;58.19;97294.84;5062802;28;20055;-61
2023/04/11 04:24:50;;;;;;;5.07;1.23;;;9.60;99.90;;;12.58;58.00;97288.13;5059182;28;20052;-61
2023/04/11 04:27:23;;;;;;;3.63;1.30;;;9.60;99.90;;;12.55;58.14;97287.66;5060774;28;20053;-62
2023/04/11 04:29:51;;;;;;;2.43;0.93;;;9.60;99.90;;;12.53;57.85;97290.50;5063426;28;20524;-61
2023/04/11 04:32:29;;;;;;;3.60;1.10;;;9.60;99.90;;;12.28;58.83;97299.75;5062586;28;20051;-61
2023/04/11 04:35:02;;;;;;;1.27;0.70;;;9.50;99.90;;;12.02;59.37;97300.97;5058941;28;20053;-62
2023/04/11 04:37:38;;;;;;;6.23;1.60;;;9.40;99.90;;;12.11;59.11;97302.53;5062470;28;20417;-62
2023/04/11 04:40:13;;;;;;;1.77;1.03;;;9.30;99.90;;;11.88;59.31;97315.84;5062372;28;20049;-62
2023/04/11 04:42:56;;;;;;;2.47;1.10;;;9.30;99.90;;;11.78;59.27;97328.59;5049590;28;20050;-62
2023/04/11 04:45:34;;;;;;;4.73;1.00;;;9.20;99.90;;;11.83;59.50;97329.75;5044507;28;20049;-62
2023/04/11 04:48:02;;;;;;;2.87;1.23;;;9.20;99.90;;;11.75;59.75;97331.66;5062978;28;20047;-62
2023/04/11 04:50:30;;;;;;;3.03;1.37;;;9.10;99.90;;;11.77;59.42;97332.28;5061958;28;20051;-62
2023/04/11 04:52:57;;;;;;;1.83;0.90;;;9.10;99.90;;;11.77;59.16;97335.78;5060125;28;20053;-62
2023/04/11 04:55:27;;;;;;;1.20;1.10;;;9.00;99.90;;;11.79;58.66;97340.94;5060242;28;20056;-62
2023/04/11 04:57:55;;;;;;;1.00;0.77;;;9.00;99.90;;;11.55;58.80;97350.72;5062354;28;20045;-62
2023/04/11 05:00:23;;;;;;;2.43;1.10;;;8.90;99.90;;;11.56;59.15;97354.25;5061219;28;20068;-62
2023/04/11 05:02:57;;;;;;;1.65;0.85;;;8.90;99.90;;;11.34;59.37;97366.47;5059193;28;20052;-62
2023/04/11 05:05:29;;;;;;;3.07;1.10;;;8.80;99.90;;;11.47;58.94;97361.44;5060097;28;20053;-62
2023/04/11 05:07:56;;;;;;;2.07;1.00;;;8.80;99.90;;;11.61;57.79;97375.84;5063282;28;20048;-62
2023/04/11 05:10:24;;;;;;;1.77;0.93;;;8.80;99.90;;;11.54;57.72;97366.91;5061461;28;20056;-62
2023/04/11 05:12:53;;;;;;;2.03;0.80;;;8.80;99.90;;;11.67;57.72;97383.19;5058917;28;20052;-62
2023/04/11 05:15:22;;;;;;;1.30;0.90;;;8.90;99.90;;;11.76;56.85;97375.97;5059406;28;20440;-62
2023/04/11 05:17:49;;;;;;;0.97;0.80;;;8.90;99.90;;;11.83;56.45;97382.25;5062086;28;20052;-62
2023/04/11 05:20:18;;;;;;;2.07;1.43;;;8.90;99.90;;;12.06;55.84;97366.31;5063322;28;20037;-62
2023/04/11 05:22:49;;;;;;;2.63;0.97;;;9.00;99.90;;;12.06;55.81;97363.66;5039257;28;20041;-62
2023/04/11 05:25:18;;;;;;;1.50;1.07;;;9.00;99.90;;;12.11;55.54;97365.75;5056895;28;20037;-62
2023/04/11 05:27:46;;;;;;;1.17;1.00;;;9.10;99.90;;;12.16;54.76;97358.88;5061672;28;20059;-62
2023/04/11 05:30:15;;;;;;;4.60;1.67;;;9.10;99.90;;;12.18;55.09;97367.53;5062250;28;20045;-62
2023/04/11 05:32:43;;;;;;;4.23;1.00;;;9.20;99.90;;;12.13;54.71;97374.41;5048360;28;20421;-61
2023/04/11 05:35:11;;;;;;;2.23;1.00;;;9.00;99.90;;;12.15;54.73;97372.41;5062107;28;20045;-61
2023/04/11 05:37:44;;;;;;;1.83;1.02;;;9.00;99.90;;;12.27;54.23;97372.81;5058325;28;20494;-62
2023/04/11 05:40:12;;;;;;;3.60;1.30;;;9.00;99.90;;;12.30;54.27;97370.63;5058814;28;20044;-62
2023/04/11 05:42:41;;;;;;;2.53;0.90;;;9.20;99.90;;;12.33;54.25;97367.59;5060827;28;20036;-62
2023/04/11 05:45:09;;;;;;;1.00;0.77;;;9.20;99.90;;;12.25;53.93;97373.00;5062957;28;20040;-64
2023/04/11 05:47:37;;;;;;;5.33;1.00;;;9.20;99.90;;;12.24;53.86;97374.00;5059326;28;20044;-63
2023/04/11 05:50:06;;;;;;;1.63;1.20;;;9.20;99.90;;;12.24;53.85;97378.53;5058101;28;20474;-62
2023/04/11 05:52:33;;;;;;;2.60;1.10;;;9.10;99.90;;;12.15;54.01;97378.56;5044126;28;20417;-63
2023/04/11 05:55:01;;;;;;;2.57;1.10;;;9.10;99.90;;;12.25;54.05;97372.16;5061186;28;20045;-62
2023/04/11 05:57:28;;;;;;;1.83;0.97;;;9.10;99.90;;;12.12;54.36;97372.78;5061608;28;20052;-62
2023/04/11 05:59:56;;;;;;;1.93;1.00;;;9.10;99.90;;;12.21;54.07;97382.38;5059653;28;20036;-62
2023/04/11 06:02:23;;;;;;;2.33;1.10;;;9.10;99.90;;;12.31;53.61;97388.31;5058952;28;20040;-62
2023/04/11 06:04:51;;;;;;;1.27;1.10;;;9.20;99.90;;;12.31;53.67;97398.13;5062502;28;20045;-62
2023/04/11 06:07:20;;;;;;;1.50;1.23;;;9.20;99.90;;;12.37;53.45;97392.13;5062250;28;20539;-62
2023/04/11 06:09:48;;;;;;;2.50;1.20;;;9.30;99.90;;;12.43;53.29;97387.88;5059591;28;20048;-62
2023/04/11 06:12:15;;;;;;;2.70;1.37;;;9.30;99.90;;;12.43;52.73;97375.38;5058370;28;20044;-62
2023/04/11 06:14:43;;;;;;;2.93;1.10;;;9.30;99.90;;;12.38;53.07;97388.41;5062210;28;20048;-61
2023/04/11 06:17:10;;;;;;;3.73;1.30;;;9.20;99.90;;;12.43;52.55;97391.38;5062740;28;20037;-63
2023/04/11 06:19:38;;;;;;;2.53;1.03;;;9.20;99.90;;;12.45;52.49;97388.56;5060159;28;20045;-63
2023/04/11 06:22:05;;;;;;;2.90;1.40;;;9.30;99.90;;;12.30;52.76;97386.63;5059554;28;20037;-63
2023/04/11 06:24:38;;;;;;;3.07;0.90;;;9.30;99.90;;;12.21;53.19;97393.88;5061009;28;20044;-63
2023/04/11 06:27:10;;;;;;;2.33;1.77;;;9.20;99.90;;;12.05;54.00;97387.81;5063028;28;20048;-63
2023/04/11 06:29:38;;;;;;;1.87;1.10;;;9.10;99.90;;;12.29;53.48;97408.16;5060323;28;20052;-63
2023/04/11 06:32:06;;;;;;;1.97;1.50;;;9.30;99.90;;;12.04;54.06;97412.84;5059015;28;20041;-62
2023/04/11 06:34:34;;;;;;;2.03;1.33;;;9.20;99.90;;;12.09;54.21;97402.47;5054144;28;20429;-61
2023/04/11 06:37:01;;;;;;;3.00;1.10;;;9.20;99.90;;;12.20;53.73;97407.41;5061120;28;20526;-62
2023/04/11 06:39:29;;;;;;;1.80;1.20;;;9.30;99.90;;;12.06;54.39;97405.47;5064846;28;20040;-62
2023/04/11 06:41:57;;;;;;;4.67;1.30;;;9.20;99.90;;;12.12;54.35;97412.81;5062162;28;20490;-62
2023/04/11 06:44:26;;;;;;;3.47;1.20;;;9.20;99.90;;;12.13;54.39;97417.13;5063475;28;20481;-62
2023/04/11 06:46:53;;;;;;;5.33;1.77;;;9.20;99.90;;;12.21;54.07;97430.41;5055632;28;20048;-63
2023/04/11 06:49:22;;;;;;;1.80;1.53;;;9.30;99.90;;;12.15;54.22;97428.44;5062783;28;20048;-63
2023/04/11 06:51:49;;;;;;;1.93;1.20;;;9.30;99.90;;;12.23;54.24;97433.72;5063104;28;20049;-61
2023/04/11 06:54:17;;;;;;;5.90;1.40;;;9.30;99.90;;;12.13;54.21;97436.63;5061448;28;20033;-61
2023/04/11 06:56:46;;;;;;;3.47;1.50;;;9.30;99.90;;;12.21;54.25;97439.25;5065931;28;20055;-61
2023/04/11 06:59:13;;;;;;;2.17;1.43;;;9.30;99.90;;;12.32;53.72;97451.34;5064966;28;20048;-61
2023/04/11 07:01:41;;;;;;;2.30;1.10;;;9.40;99.90;;;12.43;53.59;97447.47;5061975;28;20048;-61
2023/04/11 07:04:08;;;;;;;3.80;1.57;;;9.50;99.90;;;12.55;53.32;97467.38;5062022;28;20409;-61
2023/04/11 07:06:36;;;;;;;3.03;1.10;;;9.60;99.90;;;12.26;53.85;97453.91;5063508;28;20053;-61
2023/04/11 07:09:05;;;;;;;2.97;1.60;;;9.40;99.90;;;12.28;53.81;97454.56;5065940;28;20051;-62
2023/04/11 07:11:32;;;;;;;1.80;1.17;;;9.30;99.90;;;11.96;54.40;97464.41;5064528;28;20045;-65
2023/04/11 07:14:01;;;;;;;6.53;1.50;;;9.20;99.90;;;12.09;54.05;97478.00;5062302;28;20045;-65
2023/04/11 07:16:28;;;;;;;3.13;1.50;;;9.20;99.90;;;12.21;53.93;97486.44;5063434;28;20045;-64
2023/04/11 07:18:56;;;;;;;7.63;1.73;;;9.30;99.90;;;12.15;53.28;97471.13;5065777;28;20040;-64
2023/04/11 07:21:25;;;;;;;6.33;1.60;;;9.30;99.90;;;11.86;54.11;97482.44;5065595;28;20043;-64
2023/04/11 07:23:53;;;;;;;2.30;1.20;;;9.20;99.90;;;12.09;53.67;97487.84;5061087;28;20410;-64
2023/04/11 07:26:22;;;;;;;5.67;1.83;;;9.20;99.90;;;11.98;53.68;97494.41;5062783;28;20052;-64
2023/04/11 07:28:50;;;;;;;6.17;1.87;;;9.20;99.90;;;11.89;54.25;97495.44;5054962;28;20049;-64
2023/04/11 07:31:20;;;;;;;4.50;1.43;;;9.10;99.90;;;12.19;53.71;97496.47;5062315;28;20045;-64
2023/04/11 07:33:47;;;;;;;4.40;1.40;;;9.30;99.90;;;12.15;53.29;97505.84;5065114;28;20048;-64
2023/04/11 07:36:15;;;;;;;3.10;1.70;;;9.30;99.90;;;12.24;53.07;97512.81;5065760;28;20040;-64
2023/04/11 07:38:43;;;;;;;3.53;2.50;;;9.30;99.90;;;12.03;53.16;97500.06;5062446;28;20043;-64
2023/04/11 07:41:10;;;;;;;5.17;1.43;;;9.30;99.90;;;12.17;52.84;97503.81;5060811;28;20040;-64
2023/04/11 07:43:39;;;;;;;2.97;1.53;;;9.30;99.90;;;12.09;53.38;97490.53;5064603;28;20045;-65
2023/04/11 07:46:07;;;;;;;3.23;1.50;;;9.30;99.90;;;12.15;53.18;97487.97;5065513;28;20048;-64
2023/04/11 07:48:34;;;;;;;4.67;1.50;;;9.30;99.90;;;12.22;53.15;97498.81;5062965;28;20048;-65
2023/04/11 07:51:02;;;;;;;5.17;1.50;;;9.40;99.90;;;12.13;52.79;97502.50;5061287;28;20049;-63
2023/04/11 07:53:32;;;;;;;5.10;2.03;;;9.40;99.90;;;12.11;52.12;97494.66;5062019;28;20052;-64
2023/04/11 07:55:59;;;;;;;1.83;1.53;;;9.40;99.90;;;11.91;53.02;97488.94;5047866;28;20047;-64
2023/04/11 07:58:27;;;;;;;6.67;1.70;;;9.40;99.90;;;12.18;52.86;97489.47;5064851;28;20047;-64
2023/04/11 08:00:55;;;;;;;3.23;1.77;;;9.60;99.90;;;11.75;51.85;97503.16;5061753;28;20044;-64
2023/04/11 08:03:22;;;;;;;5.83;3.13;;;9.50;98.60;;;11.88;53.08;97497.25;5060558;28;20037;-64
2023/04/11 08:05:51;;;;;;;3.50;1.50;;;9.50;99.90;;;11.96;52.41;97501.75;5064744;28;20399;-64
2023/04/11 08:08:18;;;;;;;2.80;1.50;;;9.50;99.60;;;11.99;52.50;97496.91;5064448;28;20048;-64
2023/04/11 08:10:46;;;;;;;6.07;1.93;;;9.60;99.40;;;12.23;51.61;97504.97;5062078;28;20051;-64
2023/04/11 08:13:13;;;;;;;5.20;1.50;;;9.60;99.20;;;12.00;50.99;97508.44;5060254;28;20115;-64
2023/04/11 08:15:41;;;;;;;4.03;1.50;;;9.60;94.30;;;12.13;51.07;97507.84;5063519;28;20053;-63
2023/04/11 08:18:08;;;;;;;1.97;1.50;;;9.60;95.30;;;12.38;50.21;97495.19;5064811;28;20044;-63
2023/04/11 08:20:39;;;;;;;4.17;1.80;;;9.70;94.50;;;12.58;49.78;97509.78;5062813;28;20043;-63
2023/04/11 08:23:09;;;;;;;3.23;1.30;;;9.90;93.80;;;12.53;49.69;97530.81;5060069;28;20041;-64
2023/04/11 08:25:37;;;;;;;5.37;1.80;;;10.00;90.40;;;12.72;49.50;97524.19;5062123;28;20056;-63
2023/04/11 08:28:05;;;;;;;5.40;1.73;;;10.10;90.70;;;12.41;48.92;97533.06;5063626;28;20041;-64
2023/04/11 08:30:33;;;;;;;4.17;1.40;;;9.90;84.00;;;12.27;49.31;97533.81;5062015;28;20044;-64
2023/04/11 08:33:00;;;;;;;3.57;1.57;;;9.90;85.60;;;12.50;49.11;97528.50;5060990;28;20037;-64
2023/04/11 08:35:28;;;;;;;4.83;1.90;;;9.90;85.60;;;12.27;49.68;97530.28;5060997;28;20044;-64
2023/04/11 08:37:56;;;;;;;3.03;1.33;;;9.90;84.90;;;12.54;49.32;97526.31;5064411;28;20047;-63
2023/04/11 08:40:23;;;;;;;3.23;1.27;;;9.90;84.00;;;12.43;49.10;97524.03;5064236;28;20063;-64
2023/04/11 08:43:00;;;;;;;3.63;1.77;;;10.00;79.10;;;12.67;48.77;97531.91;5051398;28;20064;-64
2023/04/11 08:45:28;;;;;;;5.63;2.00;;;10.20;78.30;;;12.60;48.00;97526.44;5061129;28;20041;-64
2023/04/11 08:47:55;;;;;;;3.23;1.50;;;10.10;75.60;;;12.72;48.02;97526.88;5053028;28;20041;-63
2023/04/11 08:50:23;;;;;;;4.07;1.50;;;10.20;75.50;;;12.93;47.43;97522.69;5060172;28;20045;-63
2023/04/11 08:52:52;;;;;;;5.57;2.00;;;10.30;74.90;;;13.13;47.40;97510.50;5063278;28;20045;-63
2023/04/11 08:55:20;;;;;;;4.50;2.60;;;10.50;72.90;;;13.37;46.96;97520.16;5062901;28;20037;-63
2023/04/11 08:57:47;;;;;;;5.67;1.70;;;10.70;72.50;;;13.32;46.10;97525.25;5061762;28;20425;-63
2023/04/11 09:00:17;;;;;;;5.60;1.60;;;10.70;68.30;;;13.54;45.68;97541.41;5060475;28;20498;-63
2023/04/11 09:03:02;;;;;;;3.57;1.20;;;10.90;68.30;;;12.82;45.42;97533.81;5062706;28;20048;-64
2023/04/11 09:05:37;;;;;;;3.80;1.87;;;10.60;67.10;;;12.61;47.43;97528.09;5063781;28;20047;-63
2023/04/11 09:08:10;;;;;;;5.00;1.50;;;10.30;70.50;;;12.74;45.51;97538.19;5059786;28;20041;-64
2023/04/11 09:10:40;;;;;;;2.78;1.33;;;10.40;67.30;;;12.94;45.82;97535.88;5061501;28;20055;-63
2023/04/11 09:13:25;;;;;;;6.40;1.97;;;10.30;68.00;;;12.67;46.21;97534.56;5063753;28;20417;-63
2023/04/11 09:16:10;;;;;;;7.70;1.87;;;10.30;68.50;;;12.95;46.27;97542.03;5060512;28;20048;-63
2023/04/11 09:18:41;;;;;;;4.93;2.13;;;10.50;69.50;;;13.03;46.93;97538.47;5061492;28;20049;-63
2023/04/11 09:21:15;;;;;;;4.23;1.53;;;10.60;69.80;;;13.12;46.14;97532.06;5062812;28;20055;-63
2023/04/11 09:23:43;;;;;;;6.63;2.10;;;10.70;68.10;;;12.91;45.92;97538.06;5061364;28;20413;-63
2023/04/11 09:26:12;;;;;;;3.87;1.90;;;10.60;67.30;;;12.99;45.58;97540.69;5058504;28;20056;-63
2023/04/11 09:28:51;;;;;;;2.77;1.23;;;10.70;65.20;;;13.36;44.76;97539.91;5061540;28;20040;-63
2023/04/11 09:31:20;;;;;;;4.17;1.67;;;10.80;64.40;;;13.21;44.44;97536.34;5062437;28;20409;-63
2023/04/11 09:33:57;;;;;;;4.57;2.00;;;10.80;62.80;;;13.13;45.16;97541.75;5060426;28;20048;-63
2023/04/11 09:36:26;;;;;;;5.95;2.50;;;10.80;65.20;;;13.03;45.20;97552.69;5060375;28;20048;-63
2023/04/11 09:38:54;;;;;;;4.87;2.13;;;10.70;64.50;;;13.32;44.97;97553.81;5062960;28;20041;-63
2023/04/11 09:41:31;;;;;;;4.38;2.10;;;10.80;66.60;;;13.41;45.08;97551.91;5063540;28;20040;-63
2023/04/11 09:43:59;;;;;;;7.17;1.40;;;10.90;65.60;;;13.32;43.64;97553.81;5052581;28;20037;-62
2023/04/11 09:46:27;;;;;;;2.47;1.50;;;10.90;62.20;;;13.51;43.73;97547.09;5060762;28;20052;-62
2023/04/11 09:48:55;;;;;;;3.42;1.70;;;11.00;62.60;;;13.61;43.88;97545.03;5062465;28;20409;-62
2023/04/11 09:51:23;;;;;;;3.80;1.20;;;11.00;62.80;;;13.32;43.56;97551.16;5064144;28;20474;-62
2023/04/11 09:54:03;;;;;;;3.92;1.38;;;11.00;62.40;;;13.59;42.59;97558.56;5053130;28;20048;-61
2023/04/11 09:56:35;;;;;;;3.63;1.45;;;11.00;60.60;;;13.07;42.58;97542.47;5060605;28;20359;-62
2023/04/11 09:59:03;;;;;;;7.90;1.80;;;10.70;58.70;;;13.23;42.64;97547.69;5063801;28;20055;-62
2023/04/11 10:01:32;;;;;;;3.33;1.38;;;10.70;60.50;;;13.12;42.82;97551.59;5045775;28;20042;-62
2023/04/11 10:03:59;;;;;;;3.90;1.43;;;10.80;59.30;;;13.01;42.39;97549.38;5045488;28;20048;-62
2023/04/11 10:06:48;;;;;;;1.90;1.20;;;10.70;58.00;;;13.30;42.08;97539.78;5057817;28;20041;-62
2023/04/11 10:09:17;;;;;;;3.63;2.17;;;10.90;58.40;;;13.20;41.59;97545.34;5052950;28;20043;-62
2023/04/11 10:11:44;;;;;;;3.47;1.53;;;10.90;57.10;;;13.16;41.26;97536.03;5061031;28;20041;-62
2023/04/11 10:14:37;;;;;;;4.43;2.03;;;10.90;57.10;;;13.27;40.49;97546.31;5043659;28;20038;-62
2023/04/11 10:17:15;;;;;;;5.43;1.38;;;11.00;55.30;;;12.90;40.65;97553.28;5045016;28;20045;-62
2023/04/11 10:19:52;;;;;;;4.35;1.42;;;10.80;55.00;;;13.62;40.94;97560.03;5038431;28;20045;-62
2023/04/11 10:22:59;;;;;;;4.32;1.92;;;11.00;56.60;;;13.89;40.80;97539.84;5040855;28;20041;-62
2023/04/11 10:25:27;;;;;;;2.88;1.80;;;11.40;57.20;;;13.78;41.08;97545.66;5005302;28;20655;-61
2023/04/11 10:27:59;;;;;;;4.38;1.48;;;11.30;57.00;;;14.10;41.04;97539.13;5044042;28;20052;-61
2023/04/11 10:30:47;;;;;;;4.45;1.60;;;11.50;57.60;;;14.15;41.20;97560.81;5045804;28;20075;-61
2023/04/11 10:33:16;;;;;;;4.72;1.45;;;11.60;59.00;;;14.13;41.67;97544.09;5033729;28;20048;-62